sensor_id;sensor_type;location;lat;lon;timestamp;P1;durP1;ratioP1;P2;durP2;ratioP2
16624;SDS011;8426;48.496;9.098;2024-01-06T00:00:01;9.25;;;4.07;;
16624;SDS011;8426;48.496;9.098;2024-01-06T00:05:20;8.18;;;4.40;;
16624;SDS011;8426;48.496;9.098;2024-01-06T00:10:29;6.35;;;3.63;;
16624;SDS011;8426;48.496;9.098;2024-01-06T00:15:37;11.00;;;4.63;;
16624;SDS011;8426;48.496;9.098;2024-01-06T00:20:44;8.25;;;3.60;;
16624;SDS011;8426;48.496;9.098;2024-01-06T00:25:58;7.63;;;4.15;;
16624;SDS011;8426;48.496;9.098;2024-01-06T00:31:09;13.75;;;5.05;;
16624;SDS011;8426;48.496;9.098;2024-01-06T00:36:22;7.18;;;3.95;;
16624;SDS011;8426;48.496;9.098;2024-01-06T00:47:01;3.78;;;2.58;;
16624;SDS011;8426;48.496;9.098;2024-01-06T00:52:13;12.10;;;3.08;;
16624;SDS011;8426;48.496;9.098;2024-01-06T00:57:23;9.15;;;3.80;;
16624;SDS011;8426;48.496;9.098;2024-01-06T01:02:31;5.97;;;3.30;;
16624;SDS011;8426;48.496;9.098;2024-01-06T01:07:39;4.05;;;2.63;;
16624;SDS011;8426;48.496;9.098;2024-01-06T01:12:47;3.50;;;2.15;;
16624;SDS011;8426;48.496;9.098;2024-01-06T01:17:57;4.10;;;2.40;;
16624;SDS011;8426;48.496;9.098;2024-01-06T01:23:17;6.97;;;2.38;;
16624;SDS011;8426;48.496;9.098;2024-01-06T01:28:53;4.97;;;2.30;;
16624;SDS011;8426;48.496;9.098;2024-01-06T01:34:21;3.15;;;1.95;;
16624;SDS011;8426;48.496;9.098;2024-01-06T01:39:32;2.78;;;1.83;;
16624;SDS011;8426;48.496;9.098;2024-01-06T01:44:45;5.68;;;2.30;;
16624;SDS011;8426;48.496;9.098;2024-01-06T01:49:55;4.03;;;2.08;;
16624;SDS011;8426;48.496;9.098;2024-01-06T01:55:05;4.22;;;1.55;;
16624;SDS011;8426;48.496;9.098;2024-01-06T02:00:18;3.67;;;1.90;;
16624;SDS011;8426;48.496;9.098;2024-01-06T02:05:31;3.45;;;1.80;;
16624;SDS011;8426;48.496;9.098;2024-01-06T02:10:55;2.65;;;1.90;;
16624;SDS011;8426;48.496;9.098;2024-01-06T02:16:24;3.03;;;1.73;;
16624;SDS011;8426;48.496;9.098;2024-01-06T02:21:50;2.90;;;1.70;;
16624;SDS011;8426;48.496;9.098;2024-01-06T02:26:57;5.10;;;1.73;;
16624;SDS011;8426;48.496;9.098;2024-01-06T02:32:03;4.20;;;1.88;;
16624;SDS011;8426;48.496;9.098;2024-01-06T02:37:12;4.53;;;2.90;;
16624;SDS011;8426;48.496;9.098;2024-01-06T02:42:18;5.50;;;2.78;;
16624;SDS011;8426;48.496;9.098;2024-01-06T02:47:25;4.35;;;2.80;;
16624;SDS011;8426;48.496;9.098;2024-01-06T02:52:50;7.32;;;3.30;;
16624;SDS011;8426;48.496;9.098;2024-01-06T02:58:06;4.85;;;3.25;;
16624;SDS011;8426;48.496;9.098;2024-01-06T03:03:31;4.65;;;3.05;;
16624;SDS011;8426;48.496;9.098;2024-01-06T03:08:49;6.68;;;2.65;;
16624;SDS011;8426;48.496;9.098;2024-01-06T03:14:02;10.73;;;2.72;;
16624;SDS011;8426;48.496;9.098;2024-01-06T03:19:20;5.70;;;3.10;;
16624;SDS011;8426;48.496;9.098;2024-01-06T03:24:36;8.57;;;3.33;;
16624;SDS011;8426;48.496;9.098;2024-01-06T03:29:45;5.25;;;2.88;;
16624;SDS011;8426;48.496;9.098;2024-01-06T03:35:05;5.65;;;2.42;;
16624;SDS011;8426;48.496;9.098;2024-01-06T03:40:15;6.78;;;2.70;;
16624;SDS011;8426;48.496;9.098;2024-01-06T03:45:36;3.78;;;2.10;;
16624;SDS011;8426;48.496;9.098;2024-01-06T03:50:48;7.40;;;2.55;;
16624;SDS011;8426;48.496;9.098;2024-01-06T03:56:00;5.50;;;2.13;;
16624;SDS011;8426;48.496;9.098;2024-01-06T04:01:06;7.68;;;2.15;;
16624;SDS011;8426;48.496;9.098;2024-01-06T04:06:16;5.88;;;3.08;;
16624;SDS011;8426;48.496;9.098;2024-01-06T04:11:25;7.30;;;2.85;;
16624;SDS011;8426;48.496;9.098;2024-01-06T04:16:42;7.88;;;2.13;;
16624;SDS011;8426;48.496;9.098;2024-01-06T04:21:50;4.82;;;2.17;;
16624;SDS011;8426;48.496;9.098;2024-01-06T04:32:29;5.47;;;1.85;;
16624;SDS011;8426;48.496;9.098;2024-01-06T04:37:34;3.22;;;1.85;;
16624;SDS011;8426;48.496;9.098;2024-01-06T04:43:11;2.28;;;1.52;;
16624;SDS011;8426;48.496;9.098;2024-01-06T04:48:23;7.53;;;1.58;;
16624;SDS011;8426;48.496;9.098;2024-01-06T04:53:38;2.30;;;1.27;;
16624;SDS011;8426;48.496;9.098;2024-01-06T04:58:46;4.95;;;1.23;;
16624;SDS011;8426;48.496;9.098;2024-01-06T05:03:58;3.10;;;1.30;;
16624;SDS011;8426;48.496;9.098;2024-01-06T05:09:05;6.80;;;1.20;;
16624;SDS011;8426;48.496;9.098;2024-01-06T05:14:12;1.35;;;1.20;;
16624;SDS011;8426;48.496;9.098;2024-01-06T05:19:19;6.65;;;1.42;;
16624;SDS011;8426;48.496;9.098;2024-01-06T05:24:24;3.15;;;1.10;;
16624;SDS011;8426;48.496;9.098;2024-01-06T05:29:33;1.88;;;1.10;;
16624;SDS011;8426;48.496;9.098;2024-01-06T05:34:46;1.75;;;1.10;;
16624;SDS011;8426;48.496;9.098;2024-01-06T05:39:58;1.38;;;1.10;;
16624;SDS011;8426;48.496;9.098;2024-01-06T05:45:10;6.85;;;1.52;;
16624;SDS011;8426;48.496;9.098;2024-01-06T05:50:16;3.45;;;1.10;;
16624;SDS011;8426;48.496;9.098;2024-01-06T05:55:27;2.53;;;1.40;;
16624;SDS011;8426;48.496;9.098;2024-01-06T06:00:39;1.88;;;1.13;;
16624;SDS011;8426;48.496;9.098;2024-01-06T06:05:47;4.07;;;1.02;;
16624;SDS011;8426;48.496;9.098;2024-01-06T06:10:55;3.63;;;0.75;;
16624;SDS011;8426;48.496;9.098;2024-01-06T06:16:16;2.10;;;1.00;;
16624;SDS011;8426;48.496;9.098;2024-01-06T06:21:21;4.00;;;1.02;;
16624;SDS011;8426;48.496;9.098;2024-01-06T06:26:26;2.08;;;1.15;;
16624;SDS011;8426;48.496;9.098;2024-01-06T06:31:48;14.35;;;5.32;;
16624;SDS011;8426;48.496;9.098;2024-01-06T06:36:54;6.70;;;2.47;;
16624;SDS011;8426;48.496;9.098;2024-01-06T06:42:14;5.28;;;1.15;;
16624;SDS011;8426;48.496;9.098;2024-01-06T06:47:19;5.20;;;1.45;;
16624;SDS011;8426;48.496;9.098;2024-01-06T06:52:23;5.13;;;1.40;;
16624;SDS011;8426;48.496;9.098;2024-01-06T06:57:27;2.45;;;1.02;;
16624;SDS011;8426;48.496;9.098;2024-01-06T07:02:34;4.03;;;1.10;;
16624;SDS011;8426;48.496;9.098;2024-01-06T07:07:38;1.38;;;0.70;;
16624;SDS011;8426;48.496;9.098;2024-01-06T07:12:42;4.15;;;0.75;;
16624;SDS011;8426;48.496;9.098;2024-01-06T07:17:47;3.03;;;0.93;;
16624;SDS011;8426;48.496;9.098;2024-01-06T07:22:51;1.75;;;1.08;;
16624;SDS011;8426;48.496;9.098;2024-01-06T07:27:56;4.53;;;0.95;;
16624;SDS011;8426;48.496;9.098;2024-01-06T07:33:01;1.42;;;0.80;;
16624;SDS011;8426;48.496;9.098;2024-01-06T07:38:06;2.53;;;1.30;;
16624;SDS011;8426;48.496;9.098;2024-01-06T07:43:10;1.90;;;1.10;;
16624;SDS011;8426;48.496;9.098;2024-01-06T07:48:16;5.00;;;1.58;;
16624;SDS011;8426;48.496;9.098;2024-01-06T07:53:20;7.72;;;1.48;;
16624;SDS011;8426;48.496;9.098;2024-01-06T07:58:24;7.13;;;1.80;;
16624;SDS011;8426;48.496;9.098;2024-01-06T08:03:30;4.05;;;1.38;;
16624;SDS011;8426;48.496;9.098;2024-01-06T08:08:40;3.75;;;1.55;;
16624;SDS011;8426;48.496;9.098;2024-01-06T08:13:44;2.53;;;1.27;;
16624;SDS011;8426;48.496;9.098;2024-01-06T08:18:49;3.90;;;1.63;;
16624;SDS011;8426;48.496;9.098;2024-01-06T08:23:53;5.95;;;1.60;;
16624;SDS011;8426;48.496;9.098;2024-01-06T08:28:57;4.20;;;1.38;;
16624;SDS011;8426;48.496;9.098;2024-01-06T08:34:02;3.55;;;1.40;;
16624;SDS011;8426;48.496;9.098;2024-01-06T08:39:08;2.75;;;1.58;;
16624;SDS011;8426;48.496;9.098;2024-01-06T08:44:12;1.88;;;1.50;;
16624;SDS011;8426;48.496;9.098;2024-01-06T08:49:17;4.78;;;1.73;;
16624;SDS011;8426;48.496;9.098;2024-01-06T08:54:21;6.68;;;1.25;;
16624;SDS011;8426;48.496;9.098;2024-01-06T08:59:24;5.00;;;1.10;;
16624;SDS011;8426;48.496;9.098;2024-01-06T09:04:29;2.63;;;1.10;;
16624;SDS011;8426;48.496;9.098;2024-01-06T09:09:34;3.75;;;1.10;;
16624;SDS011;8426;48.496;9.098;2024-01-06T09:14:38;3.38;;;1.00;;
16624;SDS011;8426;48.496;9.098;2024-01-06T09:19:43;4.20;;;1.00;;
16624;SDS011;8426;48.496;9.098;2024-01-06T09:24:47;2.67;;;1.38;;
16624;SDS011;8426;48.496;9.098;2024-01-06T09:29:52;4.55;;;0.98;;
16624;SDS011;8426;48.496;9.098;2024-01-06T09:34:57;6.32;;;1.13;;
16624;SDS011;8426;48.496;9.098;2024-01-06T09:40:01;4.40;;;1.45;;
16624;SDS011;8426;48.496;9.098;2024-01-06T09:45:06;6.43;;;1.50;;
16624;SDS011;8426;48.496;9.098;2024-01-06T09:50:12;5.38;;;1.55;;
16624;SDS011;8426;48.496;9.098;2024-01-06T09:55:17;3.72;;;1.23;;
16624;SDS011;8426;48.496;9.098;2024-01-06T10:00:26;2.83;;;0.90;;
16624;SDS011;8426;48.496;9.098;2024-01-06T10:05:34;4.78;;;1.30;;
16624;SDS011;8426;48.496;9.098;2024-01-06T10:10:37;3.97;;;1.70;;
16624;SDS011;8426;48.496;9.098;2024-01-06T10:21:14;2.65;;;1.23;;
16624;SDS011;8426;48.496;9.098;2024-01-06T10:46:01;2.30;;;1.50;;
16624;SDS011;8426;48.496;9.098;2024-01-06T10:51:06;2.00;;;0.90;;
16624;SDS011;8426;48.496;9.098;2024-01-06T10:56:14;1.10;;;1.00;;
16624;SDS011;8426;48.496;9.098;2024-01-06T11:01:21;0.90;;;0.68;;
16624;SDS011;8426;48.496;9.098;2024-01-06T11:06:30;4.47;;;1.17;;
16624;SDS011;8426;48.496;9.098;2024-01-06T11:11:37;1.77;;;1.20;;
16624;SDS011;8426;48.496;9.098;2024-01-06T11:16:43;1.40;;;0.95;;
16624;SDS011;8426;48.496;9.098;2024-01-06T11:21:47;3.55;;;1.27;;
16624;SDS011;8426;48.496;9.098;2024-01-06T11:26:51;2.75;;;1.25;;
16624;SDS011;8426;48.496;9.098;2024-01-06T11:37:34;5.47;;;1.90;;
16624;SDS011;8426;48.496;9.098;2024-01-06T11:42:40;2.70;;;1.40;;
16624;SDS011;8426;48.496;9.098;2024-01-06T11:47:47;1.98;;;1.23;;
16624;SDS011;8426;48.496;9.098;2024-01-06T11:52:51;1.48;;;1.08;;
16624;SDS011;8426;48.496;9.098;2024-01-06T11:57:55;1.50;;;1.10;;
16624;SDS011;8426;48.496;9.098;2024-01-06T12:03:01;3.55;;;1.13;;
16624;SDS011;8426;48.496;9.098;2024-01-06T12:08:06;3.25;;;0.88;;
16624;SDS011;8426;48.496;9.098;2024-01-06T12:13:10;1.52;;;1.15;;
16624;SDS011;8426;48.496;9.098;2024-01-06T12:18:20;1.45;;;1.00;;
16624;SDS011;8426;48.496;9.098;2024-01-06T12:23:26;1.58;;;0.73;;
16624;SDS011;8426;48.496;9.098;2024-01-06T12:28:31;2.15;;;0.70;;
16624;SDS011;8426;48.496;9.098;2024-01-06T12:33:46;1.10;;;0.77;;
16624;SDS011;8426;48.496;9.098;2024-01-06T12:38:50;1.08;;;0.70;;
16624;SDS011;8426;48.496;9.098;2024-01-06T12:43:54;2.00;;;0.60;;
16624;SDS011;8426;48.496;9.098;2024-01-06T12:49:00;0.88;;;0.55;;
16624;SDS011;8426;48.496;9.098;2024-01-06T12:54:04;1.65;;;0.45;;
16624;SDS011;8426;48.496;9.098;2024-01-06T12:59:08;0.95;;;0.80;;
16624;SDS011;8426;48.496;9.098;2024-01-06T13:04:14;1.17;;;0.68;;
16624;SDS011;8426;48.496;9.098;2024-01-06T13:09:18;1.42;;;0.70;;
16624;SDS011;8426;48.496;9.098;2024-01-06T13:14:25;0.98;;;0.55;;
16624;SDS011;8426;48.496;9.098;2024-01-06T13:19:30;0.50;;;0.50;;
16624;SDS011;8426;48.496;9.098;2024-01-06T13:24:35;2.75;;;0.80;;
16624;SDS011;8426;48.496;9.098;2024-01-06T13:29:39;2.13;;;0.77;;
16624;SDS011;8426;48.496;9.098;2024-01-06T13:34:45;2.40;;;0.85;;
16624;SDS011;8426;48.496;9.098;2024-01-06T13:39:49;0.98;;;0.70;;
16624;SDS011;8426;48.496;9.098;2024-01-06T13:44:53;1.75;;;0.93;;
16624;SDS011;8426;48.496;9.098;2024-01-06T13:49:58;0.57;;;0.52;;
16624;SDS011;8426;48.496;9.098;2024-01-06T13:55:02;1.20;;;0.55;;
16624;SDS011;8426;48.496;9.098;2024-01-06T14:00:06;0.85;;;0.68;;
16624;SDS011;8426;48.496;9.098;2024-01-06T14:05:13;0.88;;;0.70;;
16624;SDS011;8426;48.496;9.098;2024-01-06T14:10:17;1.02;;;0.70;;
16624;SDS011;8426;48.496;9.098;2024-01-06T14:15:21;1.40;;;0.90;;
16624;SDS011;8426;48.496;9.098;2024-01-06T14:20:26;1.75;;;0.60;;
16624;SDS011;8426;48.496;9.098;2024-01-06T14:25:31;0.88;;;0.70;;
16624;SDS011;8426;48.496;9.098;2024-01-06T14:30:35;0.95;;;0.70;;
16624;SDS011;8426;48.496;9.098;2024-01-06T14:35:40;0.68;;;0.68;;
16624;SDS011;8426;48.496;9.098;2024-01-06T14:40:46;1.92;;;0.82;;
16624;SDS011;8426;48.496;9.098;2024-01-06T14:45:50;1.02;;;0.77;;
16624;SDS011;8426;48.496;9.098;2024-01-06T14:50:55;0.85;;;0.80;;
16624;SDS011;8426;48.496;9.098;2024-01-06T14:56:00;13.50;;;3.50;;
16624;SDS011;8426;48.496;9.098;2024-01-06T15:01:05;3.08;;;1.35;;
16624;SDS011;8426;48.496;9.098;2024-01-06T15:06:13;4.45;;;2.15;;
16624;SDS011;8426;48.496;9.098;2024-01-06T15:11:18;2.95;;;1.75;;
16624;SDS011;8426;48.496;9.098;2024-01-06T15:16:22;5.32;;;2.22;;
16624;SDS011;8426;48.496;9.098;2024-01-06T15:21:28;7.63;;;3.38;;
16624;SDS011;8426;48.496;9.098;2024-01-06T15:26:35;11.18;;;4.15;;
16624;SDS011;8426;48.496;9.098;2024-01-06T15:31:39;9.10;;;4.53;;
16624;SDS011;8426;48.496;9.098;2024-01-06T15:36:44;1.85;;;1.25;;
16624;SDS011;8426;48.496;9.098;2024-01-06T15:41:49;2.55;;;1.30;;
16624;SDS011;8426;48.496;9.098;2024-01-06T15:46:53;2.08;;;1.30;;
16624;SDS011;8426;48.496;9.098;2024-01-06T15:51:58;2.03;;;1.45;;
16624;SDS011;8426;48.496;9.098;2024-01-06T15:57:02;1.75;;;1.13;;
16624;SDS011;8426;48.496;9.098;2024-01-06T16:02:06;2.00;;;1.17;;
16624;SDS011;8426;48.496;9.098;2024-01-06T16:07:11;18.85;;;7.57;;
16624;SDS011;8426;48.496;9.098;2024-01-06T16:12:16;4.68;;;2.35;;
16624;SDS011;8426;48.496;9.098;2024-01-06T16:17:20;4.25;;;2.50;;
16624;SDS011;8426;48.496;9.098;2024-01-06T16:22:25;3.00;;;2.35;;
16624;SDS011;8426;48.496;9.098;2024-01-06T16:27:30;3.67;;;2.72;;
16624;SDS011;8426;48.496;9.098;2024-01-06T16:32:34;3.67;;;2.38;;
16624;SDS011;8426;48.496;9.098;2024-01-06T16:37:41;4.85;;;3.17;;
16624;SDS011;8426;48.496;9.098;2024-01-06T16:42:45;8.50;;;4.35;;
16624;SDS011;8426;48.496;9.098;2024-01-06T16:47:49;5.38;;;3.28;;
16624;SDS011;8426;48.496;9.098;2024-01-06T16:52:55;7.03;;;2.67;;
16624;SDS011;8426;48.496;9.098;2024-01-06T16:58:00;3.38;;;2.33;;
16624;SDS011;8426;48.496;9.098;2024-01-06T17:03:05;3.90;;;2.50;;
16624;SDS011;8426;48.496;9.098;2024-01-06T17:08:12;6.43;;;2.80;;
16624;SDS011;8426;48.496;9.098;2024-01-06T17:13:16;8.38;;;4.32;;
16624;SDS011;8426;48.496;9.098;2024-01-06T17:18:21;5.05;;;3.10;;
16624;SDS011;8426;48.496;9.098;2024-01-06T17:23:27;6.22;;;3.50;;
16624;SDS011;8426;48.496;9.098;2024-01-06T17:28:31;5.22;;;3.00;;
16624;SDS011;8426;48.496;9.098;2024-01-06T17:33:35;4.40;;;3.00;;
16624;SDS011;8426;48.496;9.098;2024-01-06T17:38:40;5.32;;;2.97;;
16624;SDS011;8426;48.496;9.098;2024-01-06T17:43:44;8.20;;;4.38;;
16624;SDS011;8426;48.496;9.098;2024-01-06T17:48:49;7.95;;;4.47;;
16624;SDS011;8426;48.496;9.098;2024-01-06T17:53:54;8.48;;;5.13;;
16624;SDS011;8426;48.496;9.098;2024-01-06T17:58:59;9.82;;;5.70;;
16624;SDS011;8426;48.496;9.098;2024-01-06T18:04:03;7.82;;;4.60;;
16624;SDS011;8426;48.496;9.098;2024-01-06T18:09:09;6.55;;;4.35;;
16624;SDS011;8426;48.496;9.098;2024-01-06T18:14:21;8.73;;;4.43;;
16624;SDS011;8426;48.496;9.098;2024-01-06T18:19:25;12.95;;;8.30;;
16624;SDS011;8426;48.496;9.098;2024-01-06T18:24:31;10.32;;;6.45;;
16624;SDS011;8426;48.496;9.098;2024-01-06T18:29:34;10.95;;;6.78;;
16624;SDS011;8426;48.496;9.098;2024-01-06T18:34:39;11.80;;;6.72;;
16624;SDS011;8426;48.496;9.098;2024-01-06T18:39:45;11.65;;;6.97;;
16624;SDS011;8426;48.496;9.098;2024-01-06T18:44:49;9.95;;;6.15;;
16624;SDS011;8426;48.496;9.098;2024-01-06T18:49:52;10.50;;;6.38;;
16624;SDS011;8426;48.496;9.098;2024-01-06T18:55:00;12.75;;;5.93;;
16624;SDS011;8426;48.496;9.098;2024-01-06T19:00:05;14.02;;;7.30;;
16624;SDS011;8426;48.496;9.098;2024-01-06T19:05:09;14.05;;;7.45;;
16624;SDS011;8426;48.496;9.098;2024-01-06T19:10:16;23.45;;;13.48;;
16624;SDS011;8426;48.496;9.098;2024-01-06T19:15:20;12.90;;;7.65;;
16624;SDS011;8426;48.496;9.098;2024-01-06T19:20:23;10.80;;;6.00;;
16624;SDS011;8426;48.496;9.098;2024-01-06T19:25:28;11.75;;;6.30;;
16624;SDS011;8426;48.496;9.098;2024-01-06T19:30:35;13.15;;;6.95;;
16624;SDS011;8426;48.496;9.098;2024-01-06T19:35:38;11.30;;;5.55;;
16624;SDS011;8426;48.496;9.098;2024-01-06T19:40:43;16.77;;;6.88;;
16624;SDS011;8426;48.496;9.098;2024-01-06T19:45:47;12.20;;;7.00;;
16624;SDS011;8426;48.496;9.098;2024-01-06T19:50:54;15.93;;;8.18;;
16624;SDS011;8426;48.496;9.098;2024-01-06T19:56:00;12.48;;;6.75;;
16624;SDS011;8426;48.496;9.098;2024-01-06T20:01:05;13.27;;;7.00;;
16624;SDS011;8426;48.496;9.098;2024-01-06T20:06:10;11.90;;;6.30;;
16624;SDS011;8426;48.496;9.098;2024-01-06T20:11:16;15.48;;;6.80;;
16624;SDS011;8426;48.496;9.098;2024-01-06T20:16:19;12.68;;;7.20;;
16624;SDS011;8426;48.496;9.098;2024-01-06T20:21:25;15.15;;;7.57;;
16624;SDS011;8426;48.496;9.098;2024-01-06T20:26:29;17.65;;;8.70;;
16624;SDS011;8426;48.496;9.098;2024-01-06T20:31:33;16.23;;;8.63;;
16624;SDS011;8426;48.496;9.098;2024-01-06T20:36:37;17.70;;;9.13;;
16624;SDS011;8426;48.496;9.098;2024-01-06T20:41:44;27.40;;;13.00;;
16624;SDS011;8426;48.496;9.098;2024-01-06T20:46:48;45.88;;;19.83;;
16624;SDS011;8426;48.496;9.098;2024-01-06T20:51:52;52.00;;;21.88;;
16624;SDS011;8426;48.496;9.098;2024-01-06T20:56:58;53.25;;;23.15;;
16624;SDS011;8426;48.496;9.098;2024-01-06T21:02:03;28.48;;;13.77;;
16624;SDS011;8426;48.496;9.098;2024-01-06T21:07:07;23.48;;;12.05;;
16624;SDS011;8426;48.496;9.098;2024-01-06T21:12:12;17.85;;;9.70;;
16624;SDS011;8426;48.496;9.098;2024-01-06T21:17:16;15.02;;;7.40;;
16624;SDS011;8426;48.496;9.098;2024-01-06T21:22:20;18.27;;;8.95;;
16624;SDS011;8426;48.496;9.098;2024-01-06T21:27:25;16.77;;;9.32;;
16624;SDS011;8426;48.496;9.098;2024-01-06T21:32:30;14.20;;;8.18;;
16624;SDS011;8426;48.496;9.098;2024-01-06T21:37:34;16.27;;;8.65;;
16624;SDS011;8426;48.496;9.098;2024-01-06T21:42:39;18.00;;;10.43;;
16624;SDS011;8426;48.496;9.098;2024-01-06T21:47:43;14.57;;;8.68;;
16624;SDS011;8426;48.496;9.098;2024-01-06T21:52:48;15.93;;;8.02;;
16624;SDS011;8426;48.496;9.098;2024-01-06T21:57:54;15.38;;;9.02;;
16624;SDS011;8426;48.496;9.098;2024-01-06T22:02:58;13.02;;;7.25;;
16624;SDS011;8426;48.496;9.098;2024-01-06T22:08:02;13.93;;;8.10;;
16624;SDS011;8426;48.496;9.098;2024-01-06T22:13:09;15.52;;;8.10;;
16624;SDS011;8426;48.496;9.098;2024-01-06T22:18:16;15.10;;;8.40;;
16624;SDS011;8426;48.496;9.098;2024-01-06T22:23:20;15.88;;;8.32;;
16624;SDS011;8426;48.496;9.098;2024-01-06T22:28:25;13.85;;;7.40;;
16624;SDS011;8426;48.496;9.098;2024-01-06T22:33:29;13.45;;;7.72;;
16624;SDS011;8426;48.496;9.098;2024-01-06T22:38:33;15.57;;;8.55;;
16624;SDS011;8426;48.496;9.098;2024-01-06T22:43:54;19.65;;;11.27;;
16624;SDS011;8426;48.496;9.098;2024-01-06T22:48:58;18.42;;;9.63;;
16624;SDS011;8426;48.496;9.098;2024-01-06T22:54:03;16.05;;;8.68;;
16624;SDS011;8426;48.496;9.098;2024-01-06T22:59:08;16.70;;;8.60;;
16624;SDS011;8426;48.496;9.098;2024-01-06T23:04:11;17.95;;;9.32;;
16624;SDS011;8426;48.496;9.098;2024-01-06T23:09:17;19.33;;;9.35;;
16624;SDS011;8426;48.496;9.098;2024-01-06T23:14:23;19.05;;;9.23;;
16624;SDS011;8426;48.496;9.098;2024-01-06T23:19:27;19.00;;;9.95;;
16624;SDS011;8426;48.496;9.098;2024-01-06T23:24:33;18.88;;;10.02;;
16624;SDS011;8426;48.496;9.098;2024-01-06T23:29:39;18.90;;;9.63;;
16624;SDS011;8426;48.496;9.098;2024-01-06T23:34:43;22.63;;;10.03;;
16624;SDS011;8426;48.496;9.098;2024-01-06T23:39:47;19.98;;;10.80;;
16624;SDS011;8426;48.496;9.098;2024-01-06T23:44:52;24.23;;;11.55;;
16624;SDS011;8426;48.496;9.098;2024-01-06T23:49:55;22.15;;;10.02;;
16624;SDS011;8426;48.496;9.098;2024-01-06T23:55:00;20.85;;;10.27;;
